Beltdiep — PBYF — position and weather

sailwx.info

Track history (hours):
 
Tides and Currents Weather Stations Pressure Air Temp Water Temp Dewpoint Dewpoint Depression Visibility Wind Speed Wind Dir Waves Ship Positions

Beltdiep

Last reported at 2016-Apr-28 23:33 UTC. Time now 2016-Apr-28 23:57 UTC.
Position N 36°38' E 014°38'.

Length 107 m; draft 5.4 m.

Type: Cargo ship. MMSI: 246671000.

Date/timePositionNaut miles runAvg speedWind from/ knotsBaromVisibWave heightAir tempDewpointWater temp
2016-Apr-28 23:33N 36°38' E 014°38'11 9.3
2016-Apr-28 22:22N 36°36' E 014°51'1010.4
2016-Apr-28 21:23N 36°34' E 015°04'433 9.0
2016-Apr-26 21:32N 37°25' E 024°01'11 9.9
2016-Apr-26 20:26N 37°35' E 024°09'910.0
2016-Apr-26 19:31N 37°42' E 024°15'1010.0
2016-Apr-26 18:33N 37°49' E 024°24'1010.2
2016-Apr-26 17:33N 37°55' E 024°34'263 8.1
2016-Apr-25 09:12N 40°51' E 028°47'6 9.7
2016-Apr-25 08:32N 40°55' E 028°54'4 0.7
2016-Apr-25 03:15N 40°58' E 028°57'0 0.0
2016-Apr-25 02:33N 40°58' E 028°57'0 0.0
2016-Apr-25 01:26N 40°58' E 028°57'0 0.0
2016-Apr-25 00:31N 40°58' E 028°57'321 9.2
2016-Apr-23 13:30N 46°05' E 031°08'  
2016-Apr-21 05:24N 46°17' E 030°53'328 8.0
2016-Apr-19 12:16N 40°59' E 028°60'5 7.6
2016-Apr-19 11:33N 40°54' E 029°00'9 9.0
2016-Apr-19 10:33N 40°46' E 029°05'10 9.5
2016-Apr-19 09:33N 40°44' E 029°17'10 9.6
2016-Apr-19 08:28N 40°45' E 029°31'  
Track history (hours):
 
Tides and Currents Weather Stations Pressure Air Temp Water Temp Dewpoint Dewpoint Depression Visibility Wind Speed Wind Dir Waves Ship Positions

Beltdiep

Last reported at 2016-Apr-28 23:33 UTC. Time now 2016-Apr-28 23:57 UTC.
Position N 36°38' E 014°38'.

Length 107 m; draft 5.4 m.

Type: Cargo ship. MMSI: 246671000.

Date/timePositionNaut miles runAvg speedWind from/ knotsBaromVisibWave heightAir tempDewpointWater temp
2016-Apr-28 23:33N 36°38' E 014°38'11 9.3
2016-Apr-28 22:22N 36°36' E 014°51'1010.4
2016-Apr-28 21:23N 36°34' E 015°04'433 9.0
2016-Apr-26 21:32N 37°25' E 024°01'11 9.9
2016-Apr-26 20:26N 37°35' E 024°09'910.0
2016-Apr-26 19:31N 37°42' E 024°15'1010.0
2016-Apr-26 18:33N 37°49' E 024°24'1010.2
2016-Apr-26 17:33N 37°55' E 024°34'263 8.1
2016-Apr-25 09:12N 40°51' E 028°47'6 9.7
2016-Apr-25 08:32N 40°55' E 028°54'4 0.7
2016-Apr-25 03:15N 40°58' E 028°57'0 0.0
2016-Apr-25 02:33N 40°58' E 028°57'0 0.0
2016-Apr-25 01:26N 40°58' E 028°57'0 0.0
2016-Apr-25 00:31N 40°58' E 028°57'321 9.2
2016-Apr-23 13:30N 46°05' E 031°08'  
2016-Apr-21 05:24N 46°17' E 030°53'328 8.0
2016-Apr-19 12:16N 40°59' E 028°60'5 7.6
2016-Apr-19 11:33N 40°54' E 029°00'9 9.0
2016-Apr-19 10:33N 40°46' E 029°05'10 9.5
2016-Apr-19 09:33N 40°44' E 029°17'10 9.6
2016-Apr-19 08:28N 40°45' E 029°31'  

Dump ship's entire track history